Time;durP1;ratioP1;P1;durP2;ratioP2;P2;SDS_P1;SDS_P2;PMS_P1;PMS_P2;Temp;Humidity;BMP_temperature;BMP_pressure;BME280_temperature;BME280_humidity;BME280_pressure;Samples;Min_cycle;Max_cycle;Signal;HPM_P1;HPM_P2
2021/04/03 00:02:12;;;;;;;;;;;;;;;5.77;77.30;99626.61;1762612;81;20199;-55
2021/04/03 00:05:17;;;;;;;;;;;;;;;5.76;77.28;99631.67;1762761;81;20567;-56
2021/04/03 00:08:25;;;;;;;;;;;;;;;5.75;77.18;99629.48;1762529;81;20270;-57
2021/04/03 00:11:31;;;;;;;;;;;;;;;5.72;76.97;99628.95;1762160;81;20252;-56
2021/04/03 00:14:35;;;;;;;;;;;;;;;5.62;76.96;99630.45;1762131;81;20212;-56
2021/04/03 00:17:41;;;;;;;;;;;;;;;5.61;77.08;99653.69;1765996;80;20251;-56
2021/04/03 00:20:49;;;;;;;;;;;;;;;5.56;76.91;99631.10;1769719;81;20312;-57
2021/04/03 00:23:53;;;;;;;;;;;;;;;5.52;77.06;99636.49;1769915;80;20215;-57
2021/04/03 00:26:58;;;;;;;;;;;;;;;5.51;77.17;99648.38;1770118;81;20251;-56
2021/04/03 00:30:14;;;;;;;;;;;;;;;5.52;77.05;99636.98;1753637;81;20279;-57
2021/04/03 00:33:12;;;;;;;;;;;;;;;5.50;77.03;99637.16;1769973;81;20542;-56
2021/04/03 00:36:17;;;;;;;;;;;;;;;5.46;76.97;99637.15;1769884;81;20236;-56
2021/04/03 00:39:20;;;;;;;;;;;;;;;5.43;76.92;99636.61;1769839;80;20255;-55
2021/04/03 00:42:25;;;;;;;;;;;;;;;5.41;77.03;99636.77;1770002;81;20203;-55
2021/04/03 00:45:31;;;;;;;;;;;;;;;5.42;76.93;99642.53;1769978;81;20251;-55
2021/04/03 00:48:35;;;;;;;;;;;;;;;5.41;76.90;99635.42;1769978;80;20199;-56
2021/04/03 00:51:41;;;;;;;;;;;;;;;5.37;76.76;99635.91;1769898;81;20239;-57
2021/04/03 00:54:44;;;;;;;;;;;;;;;5.35;76.83;99632.50;1770077;80;20246;-55
2021/04/03 00:57:48;;;;;;;;;;;;;;;5.31;76.73;99640.63;1770011;80;20291;-55
2021/04/03 01:00:52;;;;;;;;;;;;;;;5.29;76.87;99623.65;1770101;81;20207;-56
2021/04/03 01:03:59;;;;;;;;;;;;;;;5.32;76.73;99639.61;1769977;80;20199;-57
2021/04/03 01:07:04;;;;;;;;;;;;;;;5.26;76.52;99638.40;1769895;81;20646;-56
2021/04/03 01:10:12;;;;;;;;;;;;;;;5.23;76.61;99624.30;1769983;81;20210;-56
2021/04/03 01:13:44;;;;;;;;;;;;;;;5.23;76.64;99618.34;1770065;80;20303;-56
2021/04/03 01:17:05;;;;;;;;;;;;;;;5.24;76.52;99623.27;1769837;81;20567;-56
2021/04/03 01:20:16;;;;;;;;;;;;;;;5.20;76.39;99641.73;1770016;81;20238;-56
2021/04/03 01:23:34;;;;;;;;;;;;;;;5.20;76.41;99641.73;1769933;80;20200;-56
2021/04/03 01:26:51;;;;;;;;;;;;;;;5.20;76.32;99648.52;1769987;81;20223;-56
2021/04/03 01:30:06;;;;;;;;;;;;;;;5.20;76.25;99642.26;1769974;80;20215;-55
2021/04/03 01:33:16;;;;;;;;;;;;;;;5.19;76.28;99642.75;1770029;80;20279;-55
2021/04/03 01:36:27;;;;;;;;;;;;;;;5.16;76.10;99639.00;1770023;81;20219;-56
2021/04/03 01:39:31;;;;;;;;;;;;;;;5.13;76.33;99643.40;1769971;80;20560;-56
2021/04/03 01:42:44;;;;;;;;;;;;;;;5.17;76.04;99643.94;1769941;81;20203;-56
2021/04/03 01:45:52;;;;;;;;;;;;;;;5.15;75.84;99637.81;1769872;81;20207;-55
2021/04/03 01:49:04;;;;;;;;;;;;;;;5.11;75.82;99629.63;1770025;80;20207;-55
2021/04/03 01:52:09;;;;;;;;;;;;;;;5.16;75.98;99626.80;1769889;81;20302;-55
2021/04/03 01:55:17;;;;;;;;;;;;;;;5.20;75.93;99615.95;1769842;81;20267;-56
2021/04/03 01:58:22;;;;;;;;;;;;;;;5.26;75.90;99625.33;1770056;80;20211;-55
2021/04/03 02:01:27;;;;;;;;;;;;;;;5.31;75.77;99640.63;1770027;81;20229;-55
2021/04/03 02:04:31;;;;;;;;;;;;;;;5.28;75.46;99636.88;1750317;80;20551;-55
2021/04/03 02:07:34;;;;;;;;;;;;;;;5.31;75.21;99641.98;1769875;81;20250;-56
2021/04/03 02:10:39;;;;;;;;;;;;;;;5.24;74.93;99649.05;1769956;81;20239;-55
2021/04/03 02:13:47;;;;;;;;;;;;;;;5.18;75.08;99649.70;1769921;81;20271;-56
2021/04/03 02:16:55;;;;;;;;;;;;;;;5.18;75.06;99651.05;1770006;81;20208;-55
2021/04/03 02:20:03;;;;;;;;;;;;;;;5.18;75.09;99661.91;1771438;81;20306;-56
2021/04/03 02:23:07;;;;;;;;;;;;;;;5.15;74.95;99663.58;1775196;80;20212;-55
2021/04/03 02:26:12;;;;;;;;;;;;;;;5.09;75.07;99656.91;1775108;81;20215;-56
2021/04/03 02:29:15;;;;;;;;;;;;;;;5.10;75.24;99658.64;1775251;81;20624;-55
2021/04/03 02:32:20;;;;;;;;;;;;;;;5.09;75.37;99672.36;1758566;81;20215;-56
2021/04/03 02:35:29;;;;;;;;;;;;;;;5.06;75.49;99666.73;1775189;81;20263;-56
2021/04/03 02:38:34;;;;;;;;;;;;;;;5.09;75.63;99669.65;1775292;80;20283;-55
2021/04/03 02:41:51;;;;;;;;;;;;;;;5.11;75.50;99654.91;1775154;81;20271;-56
2021/04/03 02:45:03;;;;;;;;;;;;;;;5.15;75.49;99662.23;1775134;80;20311;-57
2021/04/03 02:48:12;;;;;;;;;;;;;;;5.10;75.30;99675.41;1775106;80;20322;-56
2021/04/03 02:51:19;;;;;;;;;;;;;;;5.06;75.38;99680.81;1775050;81;20587;-55
2021/04/03 02:54:26;;;;;;;;;;;;;;;5.03;75.35;99683.81;1775143;81;20283;-56
2021/04/03 02:57:30;;;;;;;;;;;;;;;4.98;75.45;99681.58;1775089;81;20262;-55
2021/04/03 03:00:34;;;;;;;;;;;;;;;4.98;75.49;99682.11;1775045;81;20279;-56
2021/04/03 03:03:40;;;;;;;;;;;;;;;4.92;75.60;99686.28;1775210;81;20271;-55
2021/04/03 03:06:46;;;;;;;;;;;;;;;4.88;75.76;99686.27;1775846;79;20571;-56
2021/04/03 03:09:52;;;;;;;;;;;;;;;4.89;75.78;99685.74;1773468;81;20279;-55
2021/04/03 03:12:56;;;;;;;;;;;;;;;4.88;75.79;99695.75;1773414;81;20407;-56
2021/04/03 03:16:01;;;;;;;;;;;;;;;4.88;75.82;99713.88;1773367;81;20567;-55
2021/04/03 03:19:05;;;;;;;;;;;;;;;4.89;75.83;99703.36;1773482;81;20275;-55
2021/04/03 03:22:12;;;;;;;;;;;;;;;4.91;75.86;99709.00;1773292;81;20286;-57
2021/04/03 03:25:17;;;;;;;;;;;;;;;4.96;75.87;99722.95;1773490;81;20282;-54
2021/04/03 03:28:24;;;;;;;;;;;;;;;5.04;75.91;99724.38;1773368;81;20283;-54
2021/04/03 03:31:28;;;;;;;;;;;;;;;5.11;75.63;99716.43;1773571;81;20237;-55
2021/04/03 03:34:36;;;;;;;;;;;;;;;5.11;75.48;99720.50;1773002;81;20608;-56
2021/04/03 03:37:42;;;;;;;;;;;;;;;5.10;75.32;99710.17;1773025;81;20278;-56
2021/04/03 03:40:48;;;;;;;;;;;;;;;5.13;75.19;99708.50;1773380;81;20295;-55
2021/04/03 03:43:53;;;;;;;;;;;;;;;5.09;74.86;99714.41;1772862;81;20286;-55
2021/04/03 03:47:01;;;;;;;;;;;;;;;5.09;75.00;99727.96;1773127;81;20323;-57
2021/04/03 03:50:06;;;;;;;;;;;;;;;5.05;74.71;99737.41;1773970;81;20588;-56
2021/04/03 03:53:11;;;;;;;;;;;;;;;4.93;74.53;99732.72;1774072;81;20275;-55
2021/04/03 03:56:17;;;;;;;;;;;;;;;4.87;74.67;99737.42;1773581;81;20244;-55
2021/04/03 03:59:21;;;;;;;;;;;;;;;4.85;74.71;99741.30;1773769;81;20356;-55
2021/04/03 04:02:26;;;;;;;;;;;;;;;4.89;74.66;99758.95;1773587;81;20336;-55
2021/04/03 04:05:31;;;;;;;;;;;;;;;4.89;74.50;99749.46;1774133;81;20208;-56
2021/04/03 04:08:35;;;;;;;;;;;;;;;4.89;74.43;99737.26;1773150;81;20272;-54
2021/04/03 04:11:41;;;;;;;;;;;;;;;4.89;74.29;99748.11;1773760;81;20287;-56
2021/04/03 04:14:46;;;;;;;;;;;;;;;4.88;74.15;99749.98;1773486;81;20302;-55
2021/04/03 04:17:51;;;;;;;;;;;;;;;4.86;73.84;99750.64;1773728;81;20290;-58
2021/04/03 04:20:56;;;;;;;;;;;;;;;4.79;73.60;99744.64;1772489;80;20291;-54
2021/04/03 04:24:00;;;;;;;;;;;;;;;4.75;73.72;99739.16;1773446;81;20295;-55
2021/04/03 04:27:10;;;;;;;;;;;;;;;4.73;73.52;99751.52;1773570;81;20302;-55
2021/04/03 04:30:16;;;;;;;;;;;;;;;4.73;73.53;99758.79;1773535;81;20306;-55
2021/04/03 04:33:23;;;;;;;;;;;;;;;4.72;73.39;99744.41;1773324;81;20603;-57
2021/04/03 04:36:28;;;;;;;;;;;;;;;4.71;73.31;99759.47;1773249;81;20635;-54
2021/04/03 04:39:33;;;;;;;;;;;;;;;4.68;73.24;99763.84;1773137;81;20820;-54
2021/04/03 04:42:40;;;;;;;;;;;;;;;4.69;73.22;99740.65;1773465;81;20303;-54
2021/04/03 04:45:47;;;;;;;;;;;;;;;4.70;73.09;99761.81;1773028;81;20279;-56
2021/04/03 04:48:52;;;;;;;;;;;;;;;4.68;72.93;99774.16;1773420;81;20287;-58
2021/04/03 04:51:58;;;;;;;;;;;;;;;4.61;72.79;99789.36;1773538;81;20203;-56
2021/04/03 04:55:02;;;;;;;;;;;;;;;4.53;72.76;99779.25;1772970;81;20511;-57
2021/04/03 04:58:07;;;;;;;;;;;;;;;4.47;72.93;99792.58;1766095;81;20271;-58
2021/04/03 05:01:11;;;;;;;;;;;;;;;4.41;73.06;99790.45;1773731;81;20314;-56
2021/04/03 05:04:17;;;;;;;;;;;;;;;4.40;73.29;99780.63;1771826;81;20667;-58
2021/04/03 05:07:26;;;;;;;;;;;;;;;4.46;73.38;99780.02;1772736;81;20282;-56
2021/04/03 05:10:31;;;;;;;;;;;;;;;4.51;73.03;99787.20;1773483;81;20583;-56
2021/04/03 05:13:37;;;;;;;;;;;;;;;4.53;73.03;99784.67;1773465;81;20279;-56
2021/04/03 05:16:45;;;;;;;;;;;;;;;4.61;72.95;99786.64;1773079;81;20302;-57
2021/04/03 05:19:48;;;;;;;;;;;;;;;4.72;72.77;99801.83;1772791;81;20216;-58
2021/04/03 05:22:53;;;;;;;;;;;;;;;4.71;72.41;99812.33;1769728;81;20322;-56
2021/04/03 05:25:58;;;;;;;;;;;;;;;4.70;72.27;99807.89;1772991;81;20204;-56
2021/04/03 05:29:02;;;;;;;;;;;;;;;4.71;72.05;99798.25;1773396;81;20235;-57
2021/04/03 05:32:06;;;;;;;;;;;;;;;4.72;71.85;99816.73;1771517;80;20288;-57
2021/04/03 05:35:10;;;;;;;;;;;;;;;4.78;71.90;99818.83;1771488;80;20221;-57
2021/04/03 05:38:14;;;;;;;;;;;;;;;4.85;71.66;99826.22;1771467;80;20233;-56
2021/04/03 05:41:19;;;;;;;;;;;;;;;4.86;71.24;99826.56;1774346;81;20685;-55
2021/04/03 05:44:23;;;;;;;;;;;;;;;4.92;71.50;99825.94;1774860;80;20562;-57
2021/04/03 05:47:29;;;;;;;;;;;;;;;5.11;71.60;99845.27;1774818;81;20306;-57
2021/04/03 05:50:35;;;;;;;;;;;;;;;5.21;71.11;99842.86;1775046;81;20219;-57
2021/04/03 05:53:44;;;;;;;;;;;;;;;5.25;70.96;99827.95;1800224;79;20277;-55
2021/04/03 05:56:50;;;;;;;;;;;;;;;5.34;70.98;99838.39;1801562;79;20212;-55
2021/04/03 06:00:01;;;;;;;;;;;;;;;5.48;70.40;99845.98;1806701;79;20240;-56
2021/04/03 06:03:04;;;;;;;;;;;;;;;5.44;69.97;99845.95;1805631;79;20370;-56
2021/04/03 06:06:08;;;;;;;;;;;;;;;5.53;70.37;99843.65;1788841;79;20296;-58
2021/04/03 06:09:15;;;;;;;;;;;;;;;5.66;70.00;99850.89;1806003;79;20588;-56
2021/04/03 06:12:18;;;;;;;;;;;;;;;5.81;69.63;99847.44;1804727;79;20205;-53
2021/04/03 06:15:40;;;;;;;;;;;;;;;5.92;69.11;99838.20;1804219;79;20292;-56
2021/04/03 06:18:44;;;;;;;;;;;;;;;5.87;68.75;99852.27;1806488;79;20281;-55
2021/04/03 06:21:55;;;;;;;;;;;;;;;5.80;68.83;99855.75;1806353;79;20278;-56
2021/04/03 06:25:09;;;;;;;;;;;;;;;5.77;68.94;99862.86;1804976;79;20210;-55
2021/04/03 06:28:17;;;;;;;;;;;;;;;5.74;68.69;99859.10;1806007;79;20608;-57
2021/04/03 06:31:26;;;;;;;;;;;;;;;5.71;69.30;99850.75;1806767;79;20221;-55
2021/04/03 06:34:37;;;;;;;;;;;;;;;5.79;69.24;99858.95;1806336;79;20304;-55
2021/04/03 06:37:42;;;;;;;;;;;;;;;5.82;69.20;99856.45;1806801;79;20289;-56
2021/04/03 06:40:46;;;;;;;;;;;;;;;5.82;68.79;99860.52;1806559;79;20245;-58
2021/04/03 06:44:09;;;;;;;;;;;;;;;5.89;69.09;99854.81;1806885;79;20193;-57
2021/04/03 06:47:15;;;;;;;;;;;;;;;5.99;68.73;99851.50;1804183;79;20206;-56
2021/04/03 06:50:21;;;;;;;;;;;;;;;6.06;68.02;99843.04;1768440;81;20238;-57
2021/04/03 06:53:28;;;;;;;;;;;;;;;6.14;68.13;99858.56;1806461;79;20206;-57
2021/04/03 06:56:36;;;;;;;;;;;;;;;6.30;68.20;99836.39;1806577;79;20296;-57
2021/04/03 06:59:39;;;;;;;;;;;;;;;6.51;67.17;99846.36;1805841;79;20583;-57
2021/04/03 07:02:52;;;;;;;;;;;;;;;6.66;66.13;99849.31;1768256;81;20307;-59
2021/04/03 07:05:56;;;;;;;;;;;;;;;6.67;65.69;99863.24;1768609;81;20601;-58
2021/04/03 07:09:02;;;;;;;;;;;;;;;6.67;65.13;99849.15;1768359;81;20281;-58
2021/04/03 07:12:07;;;;;;;;;;;;;;;6.68;64.51;99856.28;1768854;81;20328;-57
2021/04/03 07:15:14;;;;;;;;;;;;;;;6.73;65.39;99851.70;1806449;79;20304;-57
2021/04/03 07:18:18;;;;;;;;;;;;;;;6.91;64.97;99850.56;1768872;80;20202;-58
2021/04/03 07:21:24;;;;;;;;;;;;;;;7.10;64.03;99870.69;1777240;79;20244;-58
2021/04/03 07:24:28;;;;;;;;;;;;;;;7.13;63.25;99870.88;1786006;79;20194;-57
2021/04/03 07:27:35;;;;;;;;;;;;;;;7.11;63.14;99858.80;1768818;81;20714;-57
2021/04/03 07:30:48;;;;;;;;;;;;;;;7.12;61.46;99856.41;1769648;81;20332;-57
2021/04/03 07:33:57;;;;;;;;;;;;;;;7.22;61.47;99868.51;1769633;81;20289;-56
2021/04/03 07:37:02;;;;;;;;;;;;;;;7.37;61.63;99875.02;1767797;80;20315;-57
2021/04/03 07:40:07;;;;;;;;;;;;;;;7.53;61.32;99879.13;1729774;83;20677;-55
2021/04/03 07:43:14;;;;;;;;;;;;;;;7.69;58.81;99875.55;1745047;81;20251;-56
2021/04/03 07:46:30;;;;;;;;;;;;;;;7.77;58.55;99872.83;1750518;81;20277;-56
2021/04/03 07:49:41;;;;;;;;;;;;;;;7.95;58.92;99874.84;1762633;81;20204;-55
2021/04/03 07:53:05;;;;;;;;;;;;;;;8.17;58.20;99875.00;1766212;81;20368;-54
2021/04/03 07:56:09;;;;;;;;;;;;;;;8.30;58.76;99884.04;1762525;81;20699;-55
2021/04/03 07:59:13;;;;;;;;;;;;;;;8.41;56.80;99895.44;1768066;81;20566;-54
2021/04/03 08:02:23;;;;;;;;;;;;;;;8.37;56.36;99880.44;1731973;83;20598;-55
2021/04/03 08:05:29;;;;;;;;;;;;;;;8.19;56.02;99902.09;1733178;81;20297;-55
2021/04/03 08:08:33;;;;;;;;;;;;;;;8.04;55.03;99892.92;1732801;82;20278;-54
2021/04/03 08:11:38;;;;;;;;;;;;;;;7.97;55.59;99898.70;1732333;83;20301;-56
2021/04/03 08:14:44;;;;;;;;;;;;;;;8.01;55.34;99912.34;1732908;83;20278;-56
2021/04/03 08:17:47;;;;;;;;;;;;;;;8.13;54.32;99915.05;1761741;80;20866;-55
2021/04/03 08:21:00;;;;;;;;;;;;;;;8.22;53.82;99920.33;1762071;81;20240;-54
2021/04/03 08:24:08;;;;;;;;;;;;;;;8.28;53.40;99902.44;1762840;81;20247;-55
2021/04/03 08:27:14;;;;;;;;;;;;;;;8.35;52.97;99913.88;1732581;83;20305;-54
2021/04/03 08:30:22;;;;;;;;;;;;;;;8.55;52.70;99895.22;1732233;83;20213;-54
2021/04/03 08:33:30;;;;;;;;;;;;;;;8.80;52.96;99900.97;1731883;83;20274;-56
2021/04/03 08:36:42;;;;;;;;;;;;;;;9.10;52.39;99920.09;1732636;83;20219;-56
2021/04/03 08:39:48;;;;;;;;;;;;;;;9.32;51.99;99925.29;1732771;82;20285;-56
2021/04/03 08:42:56;;;;;;;;;;;;;;;9.38;50.77;99928.66;1732638;82;20290;-56
2021/04/03 08:46:04;;;;;;;;;;;;;;;9.36;49.43;99936.18;1732896;83;20210;-57
2021/04/03 08:49:10;;;;;;;;;;;;;;;9.20;49.96;99928.06;1717100;83;20310;-56
2021/04/03 08:52:15;;;;;;;;;;;;;;;9.13;50.80;99918.91;1731808;83;20454;-55
2021/04/03 08:55:32;;;;;;;;;;;;;;;9.28;50.08;99925.80;1732729;83;20602;-57
2021/04/03 08:58:36;;;;;;;;;;;;;;;9.46;49.01;99924.52;1733015;82;20274;-55
2021/04/03 09:01:43;;;;;;;;;;;;;;;9.62;48.92;99918.09;1732636;83;20286;-54
2021/04/03 09:04:48;;;;;;;;;;;;;;;9.81;48.81;99918.98;1733074;82;20269;-57
2021/04/03 09:07:53;;;;;;;;;;;;;;;10.00;48.33;99939.00;1732868;83;20293;-54
2021/04/03 09:11:01;;;;;;;;;;;;;;;10.06;47.21;99932.29;1739745;80;20221;-55
2021/04/03 09:14:06;;;;;;;;;;;;;;;10.26;48.05;99929.40;1742217;81;20211;-55
2021/04/03 09:17:12;;;;;;;;;;;;;;;10.39;47.27;99935.09;1739209;82;20218;-57
2021/04/03 09:20:21;;;;;;;;;;;;;;;10.40;46.95;99946.36;1739227;82;20241;-57
2021/04/03 09:23:28;;;;;;;;;;;;;;;10.53;46.87;99937.52;1745426;81;20207;-56
2021/04/03 09:26:39;;;;;;;;;;;;;;;10.60;46.65;99941.22;1768153;79;20198;-56
2021/04/03 09:29:44;;;;;;;;;;;;;;;10.55;46.80;99945.89;1793780;80;20285;-56
2021/04/03 09:32:52;;;;;;;;;;;;;;;10.43;45.54;99950.09;1779657;80;20230;-55
2021/04/03 09:35:58;;;;;;;;;;;;;;;10.39;46.33;99943.31;1769637;81;20789;-56
2021/04/03 09:39:03;;;;;;;;;;;;;;;10.50;46.58;99952.44;1755152;79;20645;-56
2021/04/03 09:42:10;;;;;;;;;;;;;;;10.53;45.58;99952.56;1738632;82;20242;-57
2021/04/03 09:45:17;;;;;;;;;;;;;;;10.55;45.46;99939.05;1697742;82;20229;-58
2021/04/03 09:48:22;;;;;;;;;;;;;;;10.68;45.39;99951.23;1738279;82;20221;-58
2021/04/03 09:51:27;;;;;;;;;;;;;;;10.65;43.06;99962.55;1738617;82;20646;-58
2021/04/03 09:54:33;;;;;;;;;;;;;;;10.58;44.32;99962.98;1738654;82;20574;-57
2021/04/03 09:57:37;;;;;;;;;;;;;;;10.66;43.95;99967.84;1739153;82;20218;-58
2021/04/03 10:00:43;;;;;;;;;;;;;;;10.62;43.73;99976.61;1739473;82;20226;-58
2021/04/03 10:03:46;;;;;;;;;;;;;;;10.61;43.78;99969.45;1738627;82;20273;-58
2021/04/03 10:06:57;;;;;;;;;;;;;;;10.65;43.71;99978.97;1748638;80;20226;-58
2021/04/03 10:10:00;;;;;;;;;;;;;;;10.66;43.86;99982.03;1738918;82;20542;-57
2021/04/03 10:13:07;;;;;;;;;;;;;;;10.72;43.91;99964.89;1739342;82;20186;-57
2021/04/03 10:16:12;;;;;;;;;;;;;;;10.91;43.79;99972.55;1739522;82;20213;-57
2021/04/03 10:19:20;;;;;;;;;;;;;;;10.82;42.63;99991.45;1739538;82;20206;-57
2021/04/03 10:22:33;;;;;;;;;;;;;;;10.74;42.77;99995.13;1739552;82;20186;-58
2021/04/03 10:25:37;;;;;;;;;;;;;;;10.87;43.00;99988.50;1739658;82;20511;-57
2021/04/03 10:28:45;;;;;;;;;;;;;;;11.18;42.82;99986.42;1770976;79;20619;-57
2021/04/03 10:32:01;;;;;;;;;;;;;;;11.40;41.88;99982.72;1775090;81;20584;-58
2021/04/03 10:35:04;;;;;;;;;;;;;;;11.49;42.21;100002.66;1775339;81;20187;-59
2021/04/03 10:38:08;;;;;;;;;;;;;;;11.46;41.36;100007.16;1784269;79;20261;-58
2021/04/03 10:41:14;;;;;;;;;;;;;;;11.51;40.93;100001.96;1776326;79;20312;-58
2021/04/03 10:44:19;;;;;;;;;;;;;;;11.50;41.16;100019.43;1790028;79;20209;-57
2021/04/03 10:47:26;;;;;;;;;;;;;;;11.25;41.45;100028.48;1806715;79;20296;-57
2021/04/03 10:50:34;;;;;;;;;;;;;;;11.12;41.55;100012.35;1806433;79;20276;-58
2021/04/03 10:53:39;;;;;;;;;;;;;;;11.29;40.84;100001.56;1800490;79;20256;-57
2021/04/03 10:56:45;;;;;;;;;;;;;;;11.58;40.39;100000.13;1799199;79;20728;-57
2021/04/03 10:59:48;;;;;;;;;;;;;;;11.83;39.91;100002.90;1789373;79;20218;-57
2021/04/03 11:02:52;;;;;;;;;;;;;;;11.92;39.75;99996.28;1789465;79;20198;-57
2021/04/03 11:05:55;;;;;;;;;;;;;;;11.88;39.23;99992.20;1773916;81;20215;-57
2021/04/03 11:09:01;;;;;;;;;;;;;;;11.91;39.64;100009.13;1797020;79;20209;-57
2021/04/03 11:12:06;;;;;;;;;;;;;;;11.88;39.15;100012.77;1802587;79;20336;-60
2021/04/03 11:15:13;;;;;;;;;;;;;;;11.94;40.04;100012.86;1785677;79;20246;-58
2021/04/03 11:18:16;;;;;;;;;;;;;;;12.30;39.50;100028.44;1778449;79;20201;-58
2021/04/03 11:21:20;;;;;;;;;;;;;;;12.25;38.88;100032.29;1799284;79;20270;-58
2021/04/03 11:24:26;;;;;;;;;;;;;;;12.12;39.06;100033.00;1804930;79;20629;-57
2021/04/03 11:27:30;;;;;;;;;;;;;;;11.97;39.00;100034.95;1796679;79;20205;-57
2021/04/03 11:30:34;;;;;;;;;;;;;;;12.03;39.31;100017.71;1767623;81;20604;-58
2021/04/03 11:33:39;;;;;;;;;;;;;;;12.10;38.71;100019.16;1767945;81;20208;-58
2021/04/03 11:36:46;;;;;;;;;;;;;;;12.40;38.58;100016.63;1768366;81;20216;-57
2021/04/03 11:39:49;;;;;;;;;;;;;;;12.57;38.58;100020.28;1768310;81;20581;-57
2021/04/03 11:42:55;;;;;;;;;;;;;;;12.45;37.45;100015.48;1749720;81;20204;-59
2021/04/03 11:46:02;;;;;;;;;;;;;;;12.22;37.32;100021.20;1746755;81;20293;-58
2021/04/03 11:49:09;;;;;;;;;;;;;;;12.04;37.82;100024.38;1749125;81;20280;-57
2021/04/03 11:52:15;;;;;;;;;;;;;;;11.94;38.01;100013.37;1750792;81;20235;-59
2021/04/03 11:55:21;;;;;;;;;;;;;;;12.02;38.50;100014.63;1746676;79;20250;-59
2021/04/03 11:58:26;;;;;;;;;;;;;;;12.16;37.87;100012.38;1739050;82;20219;-59
2021/04/03 12:01:30;;;;;;;;;;;;;;;12.21;37.78;100020.02;1739204;82;20706;-59
2021/04/03 12:04:36;;;;;;;;;;;;;;;12.24;38.36;100024.57;1739642;82;20238;-58
2021/04/03 12:07:44;;;;;;;;;;;;;;;12.08;38.21;100020.73;1744132;81;20223;-58
2021/04/03 12:10:47;;;;;;;;;;;;;;;11.97;38.31;100045.38;1769453;81;20215;-59
2021/04/03 12:13:53;;;;;;;;;;;;;;;11.84;38.29;100039.73;1769491;81;20513;-58
2021/04/03 12:16:59;;;;;;;;;;;;;;;11.81;38.42;100037.92;1769622;81;20250;-57
2021/04/03 12:20:03;;;;;;;;;;;;;;;11.86;37.89;100033.54;1769324;80;20256;-58
2021/04/03 12:23:09;;;;;;;;;;;;;;;12.15;37.51;100046.33;1739112;82;20214;-58
2021/04/03 12:26:13;;;;;;;;;;;;;;;12.36;36.67;100042.23;1739032;82;20258;-60
2021/04/03 12:29:17;;;;;;;;;;;;;;;12.35;36.60;100043.30;1737818;80;20210;-58
2021/04/03 12:32:28;;;;;;;;;;;;;;;12.33;37.00;100062.36;1733024;83;20330;-58
2021/04/03 12:35:33;;;;;;;;;;;;;;;12.15;37.13;100051.81;1732853;83;20294;-58
2021/04/03 12:38:39;;;;;;;;;;;;;;;12.18;37.51;100039.08;1732689;82;20207;-59
2021/04/03 12:41:44;;;;;;;;;;;;;;;12.26;37.16;100029.35;1733078;83;20336;-58
2021/04/03 12:44:50;;;;;;;;;;;;;;;12.40;36.77;100035.84;1733092;83;20290;-58
2021/04/03 12:47:55;;;;;;;;;;;;;;;12.39;36.02;100028.13;1732959;83;20689;-58
2021/04/03 12:51:02;;;;;;;;;;;;;;;12.33;36.37;100033.03;1733023;82;20206;-59
2021/04/03 12:54:07;;;;;;;;;;;;;;;12.28;36.08;100033.27;1733286;83;20284;-59
2021/04/03 12:57:12;;;;;;;;;;;;;;;12.10;35.50;100029.59;1733132;83;20202;-58
2021/04/03 13:00:18;;;;;;;;;;;;;;;11.97;35.88;100033.58;1750777;81;20261;-58
2021/04/03 13:03:23;;;;;;;;;;;;;;;12.04;36.22;100025.75;1758036;81;20208;-58
2021/04/03 13:06:26;;;;;;;;;;;;;;;12.43;36.06;100018.43;1758279;81;20208;-59
2021/04/03 13:09:32;;;;;;;;;;;;;;;12.91;35.70;100013.47;1757825;81;20209;-57
2021/04/03 13:12:38;;;;;;;;;;;;;;;13.35;35.78;100004.39;1758306;81;20208;-59
2021/04/03 13:15:47;;;;;;;;;;;;;;;13.65;34.60;100012.39;1758399;81;20211;-57
2021/04/03 13:18:53;;;;;;;;;;;;;;;13.68;34.65;100008.70;1758284;81;20205;-58
2021/04/03 13:21:57;;;;;;;;;;;;;;;13.76;34.15;100016.78;1758429;81;20211;-59
2021/04/03 13:25:02;;;;;;;;;;;;;;;13.98;34.81;100022.48;1758228;81;20252;-58
2021/04/03 13:28:07;;;;;;;;;;;;;;;14.23;33.43;100036.00;1758360;81;20577;-58
2021/04/03 13:31:12;;;;;;;;;;;;;;;14.22;32.66;100023.27;1780246;79;20197;-58
2021/04/03 13:34:16;;;;;;;;;;;;;;;13.97;32.69;100035.06;1801064;80;20236;-59
2021/04/03 13:37:21;;;;;;;;;;;;;;;13.66;32.78;100047.08;1801038;80;20554;-57
2021/04/03 13:40:26;;;;;;;;;;;;;;;13.29;33.53;100057.44;1795418;79;20281;-57
2021/04/03 13:43:30;;;;;;;;;;;;;;;13.07;34.02;100067.31;1792210;79;20252;-59
2021/04/03 13:46:35;;;;;;;;;;;;;;;12.84;34.27;100067.53;1787983;80;20232;-59
2021/04/03 13:49:40;;;;;;;;;;;;;;;12.73;34.79;100073.53;1767676;81;20621;-58
2021/04/03 13:52:43;;;;;;;;;;;;;;;12.59;35.34;100082.69;1767446;81;20504;-57
2021/04/03 13:55:50;;;;;;;;;;;;;;;12.48;35.52;100087.87;1768070;81;20205;-58
2021/04/03 13:58:54;;;;;;;;;;;;;;;12.38;35.81;100099.17;1768048;81;20237;-57
2021/04/03 14:01:57;;;;;;;;;;;;;;;12.30;35.72;100084.71;1768350;81;20206;-58
2021/04/03 14:05:01;;;;;;;;;;;;;;;12.23;35.42;100087.89;1768085;81;20241;-58
2021/04/03 14:08:06;;;;;;;;;;;;;;;12.15;35.65;100089.38;1768131;81;20542;-57
2021/04/03 14:11:10;;;;;;;;;;;;;;;12.12;36.25;100083.77;1774504;80;20259;-58
2021/04/03 14:14:13;;;;;;;;;;;;;;;12.10;35.80;100073.49;1758384;81;20215;-58
2021/04/03 14:17:19;;;;;;;;;;;;;;;11.96;36.09;100083.47;1758145;81;20204;-58
2021/04/03 14:20:25;;;;;;;;;;;;;;;11.81;36.46;100087.28;1758330;81;20200;-58
2021/04/03 14:23:29;;;;;;;;;;;;;;;11.71;36.85;100083.97;1790405;80;20270;-57
2021/04/03 14:26:33;;;;;;;;;;;;;;;11.71;36.61;100086.20;1793550;80;20281;-58
2021/04/03 14:29:43;;;;;;;;;;;;;;;11.73;36.42;100084.64;1767780;80;20198;-57
2021/04/03 14:32:47;;;;;;;;;;;;;;;11.72;36.34;100085.66;1788625;80;20518;-57
2021/04/03 14:35:52;;;;;;;;;;;;;;;11.74;36.64;100094.05;1790757;80;20217;-57
2021/04/03 14:38:57;;;;;;;;;;;;;;;11.83;36.56;100096.15;1778927;79;20210;-57
2021/04/03 14:42:00;;;;;;;;;;;;;;;11.85;36.28;100094.07;1773036;80;20222;-58
2021/04/03 14:45:04;;;;;;;;;;;;;;;11.87;36.17;100089.25;1773024;81;20257;-58
2021/04/03 14:48:10;;;;;;;;;;;;;;;12.12;36.25;100092.00;1772903;81;20578;-58
2021/04/03 14:51:14;;;;;;;;;;;;;;;12.30;35.86;100094.31;1773339;81;20224;-58
2021/04/03 14:54:18;;;;;;;;;;;;;;;12.43;36.05;100091.17;1773367;81;20629;-58
2021/04/03 14:57:22;;;;;;;;;;;;;;;12.50;35.70;100104.47;1778151;80;20297;-58
2021/04/03 15:00:26;;;;;;;;;;;;;;;12.43;35.71;100101.33;1795687;80;20217;-58
2021/04/03 15:03:32;;;;;;;;;;;;;;;12.29;35.88;100104.44;1783212;80;20352;-57
2021/04/03 15:06:35;;;;;;;;;;;;;;;12.12;36.56;100103.48;1782965;80;20595;-57
2021/04/03 15:09:38;;;;;;;;;;;;;;;12.02;36.71;100110.64;1795509;80;20577;-58
2021/04/03 15:12:43;;;;;;;;;;;;;;;11.98;36.91;100114.83;1795697;80;20225;-57
2021/04/03 15:15:50;;;;;;;;;;;;;;;11.87;37.04;100123.03;1796178;79;20210;-57
2021/04/03 15:18:54;;;;;;;;;;;;;;;11.71;37.61;100122.36;1795640;80;20194;-58
2021/04/03 15:21:58;;;;;;;;;;;;;;;11.67;37.91;100131.48;1795760;80;20252;-57
2021/04/03 15:25:01;;;;;;;;;;;;;;;11.65;38.23;100128.61;1795829;80;20209;-58
2021/04/03 15:28:06;;;;;;;;;;;;;;;11.62;38.15;100135.27;1764681;80;20302;-58
2021/04/03 15:31:09;;;;;;;;;;;;;;;11.60;38.42;100137.88;1764609;81;20301;-58
2021/04/03 15:34:13;;;;;;;;;;;;;;;11.64;38.42;100144.70;1772419;80;20275;-58
2021/04/03 15:37:28;;;;;;;;;;;;;;;11.55;38.05;100133.48;1775134;81;20294;-57
2021/04/03 15:40:33;;;;;;;;;;;;;;;11.47;38.06;100141.78;1775157;81;20275;-58
2021/04/03 15:43:38;;;;;;;;;;;;;;;11.41;38.23;100139.80;1775092;80;20353;-58
2021/04/03 15:46:48;;;;;;;;;;;;;;;11.32;38.00;100140.93;1775114;81;20283;-58
2021/04/03 15:49:53;;;;;;;;;;;;;;;11.21;38.51;100144.12;1775016;81;20195;-58
2021/04/03 15:52:57;;;;;;;;;;;;;;;11.16;38.58;100134.23;1774904;80;20255;-60
2021/04/03 15:56:01;;;;;;;;;;;;;;;11.07;38.98;100136.19;1774903;81;20238;-58
2021/04/03 15:59:07;;;;;;;;;;;;;;;11.04;39.35;100145.28;1774896;80;20306;-58
2021/04/03 16:02:11;;;;;;;;;;;;;;;11.03;39.44;100150.44;1774839;81;20247;-58
2021/04/03 16:05:16;;;;;;;;;;;;;;;11.00;39.65;100147.56;1774773;79;20234;-58
2021/04/03 16:08:20;;;;;;;;;;;;;;;10.99;40.02;100156.80;1772557;81;20275;-57
2021/04/03 16:11:27;;;;;;;;;;;;;;;10.93;40.21;100160.28;1772753;81;20322;-59